Time;durP1;ratioP1;P1;durP2;ratioP2;P2;SDS_P1;SDS_P2;PMS_P1;PMS_P2;Temp;Humidity;BMP_temperature;BMP_pressure;BME280_temperature;BME280_humidity;BME280_pressure;Samples;Min_cycle;Max_cycle;Signal;HPM_P1;HPM_P2
2023/12/22 00:01:28;;;;;;;21.83;3.50;;;;;;;3.77;100.00;98802.31;4897911;29;20056;-76
2023/12/22 00:03:54;;;;;;;19.30;3.03;;;;;;;3.74;100.00;98800.22;4865456;29;20411;-77
2023/12/22 00:06:20;;;;;;;13.32;3.03;;;;;;;3.71;100.00;98808.69;4901612;29;20051;-76
2023/12/22 00:08:45;;;;;;;23.30;3.00;;;;;;;3.71;100.00;98792.00;4883396;29;20418;-77
2023/12/22 00:11:11;;;;;;;22.10;3.40;;;;;;;3.71;100.00;98794.66;4890977;29;20098;-75
2023/12/22 00:13:37;;;;;;;15.18;4.00;;;;;;;3.70;100.00;98817.69;4886322;29;20036;-73
2023/12/22 00:16:03;;;;;;;17.70;2.88;;;;;;;3.71;100.00;98813.97;4899828;29;20060;-76
2023/12/22 00:18:28;;;;;;;18.48;3.40;;;;;;;3.71;100.00;98811.31;4914218;29;20053;-77
2023/12/22 00:20:54;;;;;;;19.77;3.33;;;;;;;3.71;100.00;98807.88;4882933;29;20048;-79
2023/12/22 00:23:19;;;;;;;22.63;3.35;;;;;;;3.71;100.00;98815.84;4881853;29;20586;-77
2023/12/22 00:25:45;;;;;;;19.80;3.33;;;;;;;3.69;100.00;98823.25;4885871;29;20467;-75
2023/12/22 00:28:11;;;;;;;21.00;3.22;;;;;;;3.67;100.00;98817.44;4884538;29;20044;-74
2023/12/22 00:30:37;;;;;;;19.80;3.10;;;;;;;3.64;100.00;98825.91;4902023;29;20033;-75
2023/12/22 00:33:03;;;;;;;15.30;3.10;;;;;;;3.60;100.00;98827.53;4901044;29;20058;-75
2023/12/22 00:35:28;;;;;;;23.58;3.05;;;;;;;3.59;100.00;98831.22;4899995;29;20495;-74
2023/12/22 00:37:55;;;;;;;18.15;2.97;;;;;;;3.56;100.00;98827.28;4903853;29;20100;-78
2023/12/22 00:40:22;;;;;;;20.92;3.33;;;;;;;3.50;100.00;98813.25;4896991;29;20074;-77
2023/12/22 00:42:47;;;;;;;19.88;3.83;;;;;;;3.57;100.00;98844.75;4883906;29;20558;-77
2023/12/22 00:45:13;;;;;;;23.98;3.08;;;;;;;3.55;100.00;98837.06;4866559;29;20578;-78
2023/12/22 00:47:39;;;;;;;20.98;3.25;;;;;;;3.55;100.00;98825.69;4899683;29;20561;-78
2023/12/22 00:50:05;;;;;;;17.95;3.00;;;;;;;3.56;100.00;98827.28;4892816;29;20126;-77
2023/12/22 00:52:34;;;;;;;12.45;2.55;;;;;;;3.59;100.00;98836.53;4882545;29;20051;-80
2023/12/22 00:54:59;;;;;;;20.75;3.10;;;;;;;3.59;100.00;98828.56;4896955;29;20040;-77
2023/12/22 00:57:25;;;;;;;21.60;3.42;;;;;;;3.59;100.00;98841.81;4900928;29;20461;-78
2023/12/22 00:59:51;;;;;;;20.08;2.97;;;;;;;3.53;100.00;98833.91;4902562;29;20052;-77
2023/12/22 01:02:17;;;;;;;19.27;2.97;;;;;;;3.47;100.00;98834.19;4897513;29;20047;-78
2023/12/22 01:04:43;;;;;;;;;;;;;;;3.41;100.00;98837.91;4889805;29;20046;-78
2023/12/22 01:07:09;;;;;;;16.83;2.67;;;;;;;3.41;100.00;98829.97;4883622;29;19919;-76
2023/12/22 01:09:36;;;;;;;17.60;2.63;;;;;;;3.42;100.00;98832.34;4890209;29;20131;-78
2023/12/22 01:12:03;;;;;;;14.02;2.38;;;;;;;3.38;100.00;98828.63;4884579;29;20036;-80
2023/12/22 01:14:30;;;;;;;16.55;2.20;;;;;;;3.36;100.00;98833.41;4899802;29;20127;-79
2023/12/22 01:16:56;;;;;;;;;;;;;;;3.31;100.00;98844.00;4900497;29;20036;-80
2023/12/22 01:19:22;;;;;;;13.13;2.28;;;;;;;3.27;100.00;98850.91;4905689;29;20483;-77
2023/12/22 01:21:50;;;;;;;10.88;1.85;;;;;;;3.24;100.00;98859.38;4906234;29;20656;-75
2023/12/22 01:24:16;;;;;;;16.60;2.05;;;;;;;3.24;100.00;98867.31;4878547;29;20308;-81
2023/12/22 01:26:42;;;;;;;7.72;1.27;;;;;;;3.28;100.00;98877.09;4907913;29;20473;-79
2023/12/22 01:29:08;;;;;;;8.65;1.05;;;;;;;3.33;100.00;98886.88;4905296;29;20037;-78
2023/12/22 01:31:34;;;;;;;7.90;1.52;;;;;;;3.28;100.00;98889.53;4905205;29;20071;-79
2023/12/22 01:34:00;;;;;;;7.07;1.15;;;;;;;3.19;100.00;98885.84;4913852;29;20067;-78
2023/12/22 01:36:26;;;;;;;8.65;1.92;;;;;;;2.92;100.00;98897.47;4911275;29;20063;-80
2023/12/22 01:38:51;;;;;;;11.18;1.30;;;;;;;2.69;100.00;98890.84;4908408;29;20079;-79
2023/12/22 01:41:17;;;;;;;18.42;2.08;;;;;;;2.43;100.00;98900.56;4908598;29;20063;-80
2023/12/22 01:43:43;;;;;;;8.77;2.10;;;;;;;2.22;100.00;98901.56;4903390;29;20044;-80
2023/12/22 01:46:09;;;;;;;9.90;1.48;;;;;;;2.05;100.00;98919.47;4897158;29;20039;-77
2023/12/22 01:48:36;;;;;;;5.05;1.10;;;;;;;1.86;100.00;98924.41;4905893;29;20036;-79
2023/12/22 01:51:02;;;;;;;;;;;;;;;1.66;100.00;98930.38;4910999;29;20502;-79
2023/12/22 01:53:28;;;;;;;6.90;1.38;;;;;;;1.60;100.00;98907.63;4882939;29;19923;-82
2023/12/22 01:55:55;;;;;;;7.78;1.10;;;;;;;1.51;100.00;98909.19;4904692;29;20046;-79
2023/12/22 01:58:23;;;;;;;2.83;1.05;;;;;;;1.49;100.00;98916.53;4903617;29;20044;-77
2023/12/22 02:00:49;;;;;;;1.45;0.45;;;;;;;1.51;100.00;98914.44;4907155;29;20046;-79
2023/12/22 02:03:16;;;;;;;8.38;0.90;;;;;;;1.46;100.00;98891.47;4908631;29;20039;-79
2023/12/22 02:05:47;;;;;;;2.33;0.60;;;;;;;1.47;100.00;98889.63;4889625;29;20066;-81
2023/12/22 02:08:13;;;;;;;6.72;1.00;;;;;;;1.47;100.00;98892.25;4907006;29;20028;-78
2023/12/22 02:10:39;;;;;;;4.45;0.95;;;;;;;1.50;100.00;98881.22;4904690;29;20792;-76
2023/12/22 02:13:05;;;;;;;7.60;1.30;;;;;;;1.55;100.00;98900.47;4903753;29;20119;-78
2023/12/22 02:15:32;;;;;;;8.50;1.23;;;;;;;1.59;100.00;98883.09;4902583;29;20127;-75
2023/12/22 02:18:09;;;;;;;8.07;1.10;;;;;;;1.66;100.00;98890.78;4904497;29;20035;-78
2023/12/22 02:20:35;;;;;;;9.23;1.38;;;;;;;1.70;100.00;98883.97;4901905;29;20494;-79
2023/12/22 02:23:00;;;;;;;6.28;1.05;;;;;;;1.74;100.00;98892.13;4904170;29;20090;-82
2023/12/22 02:25:26;;;;;;;7.22;1.30;;;;;;;1.79;100.00;98903.53;4900043;29;20097;-80
2023/12/22 02:28:11;;;;;;;8.98;1.25;;;;;;;1.84;100.00;98895.63;4904373;29;20705;-76
2023/12/22 02:30:59;;;;;;;;;;;;;;;1.88;100.00;98885.34;4888658;29;20414;-78
2023/12/22 02:33:29;;;;;;;6.60;1.63;;;;;;;1.90;100.00;98891.97;4900118;29;21206;-82
2023/12/22 02:36:01;;;;;;;9.02;1.05;;;;;;;1.91;100.00;98885.63;4888429;29;20043;-80
2023/12/22 02:38:28;;;;;;;10.75;1.35;;;;;;;1.97;100.00;98877.75;4885610;29;20125;-77
2023/12/22 02:40:54;;;;;;;;;;;;;;;2.00;100.00;98882.50;4901869;29;20035;-81
2023/12/22 02:43:20;;;;;;;11.32;1.70;;;;;;;1.95;100.00;98867.41;4885576;29;20019;-75
2023/12/22 02:45:50;;;;;;;9.68;1.52;;;;;;;2.00;100.00;98864.00;4890553;29;20592;-77
2023/12/22 02:48:16;;;;;;;13.77;1.92;;;;;;;2.00;100.00;98869.28;4904038;29;20159;-78
2023/12/22 02:50:42;;;;;;;8.68;1.73;;;;;;;2.04;100.00;98873.00;4902701;29;20473;-78
2023/12/22 02:53:08;;;;;;;10.43;1.50;;;;;;;2.10;100.00;98870.13;4897113;29;20037;-79
2023/12/22 02:55:33;;;;;;;7.90;1.10;;;;;;;2.08;100.00;98860.88;4888380;29;20137;-79
2023/12/22 02:57:59;;;;;;;11.48;1.20;;;;;;;2.14;100.00;98870.38;4902167;29;20036;-79
2023/12/22 03:00:25;;;;;;;12.52;1.67;;;;;;;2.21;100.00;98870.16;4904552;29;20112;-75
2023/12/22 03:02:50;;;;;;;9.27;2.03;;;;;;;2.18;100.00;98882.03;4889069;29;20046;-79
2023/12/22 03:05:16;;;;;;;4.45;1.00;;;;;;;2.13;100.00;98896.00;4905500;29;20040;-78
2023/12/22 03:07:42;;;;;;;4.38;1.10;;;;;;;2.08;100.00;98922.38;4883561;29;20123;-80
2023/12/22 03:10:08;;;;;;;5.20;1.45;;;;;;;2.09;100.00;98909.97;4900662;29;20043;-81
2023/12/22 03:12:34;;;;;;;9.05;1.85;;;;;;;2.04;100.00;98880.94;4900247;29;20060;-85
2023/12/22 03:14:59;;;;;;;4.72;1.20;;;;;;;2.02;100.00;98904.94;4869170;29;20097;-80
2023/12/22 03:17:25;;;;;;;4.88;1.40;;;;;;;1.97;100.00;98886.44;4867373;29;20125;-80
2023/12/22 03:19:50;;;;;;;2.70;0.70;;;;;;;1.95;100.00;98887.75;4899929;29;20043;-80
2023/12/22 03:22:17;;;;;;;3.08;0.75;;;;;;;1.89;100.00;98895.63;4902810;29;20059;-80
2023/12/22 03:24:43;;;;;;;3.33;0.60;;;;;;;1.86;100.00;98906.72;4907532;29;20148;-78
2023/12/22 03:27:09;;;;;;;5.38;1.58;;;;;;;1.85;100.00;98899.84;4905594;29;20036;-81
2023/12/22 03:29:34;;;;;;;3.85;1.27;;;;;;;1.86;100.00;98906.72;4869862;29;21245;-80
2023/12/22 03:32:01;;;;;;;3.33;1.40;;;;;;;1.84;100.00;98897.47;4904324;29;20043;-81
2023/12/22 03:34:26;;;;;;;;;;;;;;;1.83;100.00;98890.59;4881353;29;20044;-81
2023/12/22 03:36:52;;;;;;;3.83;0.70;;;;;;;1.79;100.00;98900.88;4902204;29;19927;-77
2023/12/22 03:39:18;;;;;;;5.38;0.93;;;;;;;1.69;100.00;98895.53;4870136;29;20047;-82
2023/12/22 03:41:43;;;;;;;5.40;1.48;;;;;;;1.63;100.00;98886.03;4903382;29;20556;-79
2023/12/22 03:44:09;;;;;;;7.35;1.48;;;;;;;1.64;100.00;98882.34;4895495;29;20052;-80
2023/12/22 03:46:35;;;;;;;4.78;1.60;;;;;;;1.64;100.00;98874.44;4901504;29;20567;-80
2023/12/22 03:49:00;;;;;;;6.45;1.50;;;;;;;1.56;100.00;98878.34;4904590;29;20042;-79
2023/12/22 03:51:26;;;;;;;5.70;1.83;;;;;;;1.63;100.00;98875.47;4905432;29;20088;-81
2023/12/22 03:53:52;;;;;;;8.02;1.20;;;;;;;1.68;100.00;98872.84;4903595;29;20032;-80
2023/12/22 03:56:18;;;;;;;5.13;0.77;;;;;;;1.69;100.00;98866.50;4904439;29;20040;-81
2023/12/22 03:58:44;;;;;;;4.63;0.70;;;;;;;1.78;100.00;98861.56;4892040;29;20171;-80
2023/12/22 04:01:14;;;;;;;7.88;0.88;;;;;;;1.84;100.00;98877.16;4886333;29;20540;-79
2023/12/22 04:03:40;;;;;;;5.78;0.90;;;;;;;1.86;100.00;98868.97;4892004;29;20045;-79
2023/12/22 04:06:06;;;;;;;4.22;0.60;;;;;;;1.90;100.00;98860.28;4904703;29;20490;-82
2023/12/22 04:08:32;;;;;;;5.28;0.85;;;;;;;1.94;100.00;98849.19;4891288;29;20049;-82
2023/12/22 04:10:58;;;;;;;7.65;1.58;;;;;;;1.97;100.00;98849.50;4910460;29;20052;-82
2023/12/22 04:13:25;;;;;;;5.22;1.20;;;;;;;2.00;100.00;98842.88;4901930;29;20055;-80
2023/12/22 04:15:52;;;;;;;7.20;0.77;;;;;;;2.05;100.00;98843.69;4887642;29;20059;-79
2023/12/22 04:18:18;;;;;;;4.35;0.85;;;;;;;2.08;100.00;98852.94;4905606;29;20047;-82
2023/12/22 04:20:44;;;;;;;9.20;1.25;;;;;;;2.13;100.00;98847.69;4906775;29;20091;-80
2023/12/22 04:23:09;;;;;;;5.13;1.05;;;;;;;2.14;100.00;98859.81;4906984;29;20044;-78
2023/12/22 04:25:35;;;;;;;7.78;1.20;;;;;;;2.17;100.00;98861.97;4906195;29;20044;-80
2023/12/22 04:28:01;;;;;;;7.30;1.30;;;;;;;2.16;100.00;98866.44;4907387;29;20043;-81
2023/12/22 04:30:27;;;;;;;7.05;1.30;;;;;;;2.18;100.00;98859.06;4892647;29;20383;-80
2023/12/22 04:32:53;;;;;;;10.77;1.38;;;;;;;2.23;100.00;98874.09;4891654;29;20051;-79
2023/12/22 04:35:21;;;;;;;6.47;1.27;;;;;;;2.19;100.00;98851.94;4901162;29;20044;-79
2023/12/22 04:37:47;;;;;;;5.05;1.27;;;;;;;2.19;100.00;98862.50;4897841;29;20102;-80
2023/12/22 04:40:13;;;;;;;12.88;1.65;;;;;;;2.17;100.00;98864.59;4901603;29;20840;-81
2023/12/22 04:42:39;;;;;;;10.13;1.40;;;;;;;2.17;100.00;98852.19;4884718;29;20150;-81
2023/12/22 04:45:04;;;;;;;6.22;1.35;;;;;;;2.17;100.00;98864.59;4910118;29;20066;-81
2023/12/22 04:47:30;;;;;;;10.20;1.52;;;;;;;2.19;100.00;98860.63;4897791;29;20047;-80
2023/12/22 04:49:56;;;;;;;8.75;1.73;;;;;;;2.22;100.00;98859.31;4888414;29;20112;-81
2023/12/22 04:52:22;;;;;;;6.65;1.23;;;;;;;2.22;100.00;98850.59;4894303;29;20032;-82
2023/12/22 04:54:48;;;;;;;10.18;1.55;;;;;;;2.26;100.00;98852.47;4909458;29;20034;-80
2023/12/22 04:57:14;;;;;;;8.43;1.30;;;;;;;2.27;100.00;98861.97;4909646;29;20119;-78
2023/12/22 04:59:40;;;;;;;8.05;1.05;;;;;;;2.35;100.00;98865.94;4879688;29;20052;-79
2023/12/22 05:02:05;;;;;;;5.80;1.15;;;;;;;2.33;100.00;98837.16;4907905;29;20501;-81
2023/12/22 05:04:32;;;;;;;8.38;1.25;;;;;;;2.39;100.00;98846.69;4903345;29;20119;-79
2023/12/22 05:06:58;;;;;;;;;;;;;;;2.39;100.00;98844.03;4906882;29;20042;-79
2023/12/22 05:09:25;;;;;;;4.18;0.85;;;;;;;2.42;100.00;98827.66;4907306;29;19915;-79
2023/12/22 05:11:50;;;;;;;10.52;1.10;;;;;;;2.52;100.00;98831.38;4898646;29;20062;-79
2023/12/22 05:14:16;;;;;;;6.78;1.40;;;;;;;2.55;100.00;98844.06;4879308;29;20135;-80
2023/12/22 05:16:42;;;;;;;9.85;1.17;;;;;;;2.59;100.00;98853.84;4905218;29;20409;-79
2023/12/22 05:19:08;;;;;;;8.75;1.27;;;;;;;2.61;100.00;98874.72;4910717;29;20032;-80
2023/12/22 05:21:34;;;;;;;6.53;1.33;;;;;;;2.62;100.00;98913.31;4893663;29;20043;-79
2023/12/22 05:24:00;;;;;;;10.63;1.35;;;;;;;2.60;100.00;98913.56;4909598;29;20095;-82
2023/12/22 05:26:29;;;;;;;12.82;1.20;;;;;;;2.54;100.00;98905.88;4903155;29;20043;-87
2023/12/22 05:28:56;;;;;;;7.80;1.25;;;;;;;2.53;100.00;98891.88;4894816;29;20663;-80
2023/12/22 05:31:23;;;;;;;7.78;1.63;;;;;;;2.46;100.00;98878.13;4907402;29;20029;-83
2023/12/22 05:33:48;;;;;;;10.88;1.33;;;;;;;2.38;100.00;98908.50;4906937;29;20215;-78
2023/12/22 05:36:14;;;;;;;15.18;1.95;;;;;;;2.32;100.00;98898.97;4907590;29;20039;-88
2023/12/22 05:38:40;;;;;;;7.00;1.20;;;;;;;2.27;100.00;98892.88;4900270;29;20043;-79
2023/12/22 05:41:06;;;;;;;10.80;1.60;;;;;;;2.20;100.00;98901.03;4892246;29;20029;-80
2023/12/22 05:43:33;;;;;;;8.38;1.08;;;;;;;2.20;100.00;98906.31;4913462;29;20070;-82
2023/12/22 05:45:59;;;;;;;7.28;0.90;;;;;;;2.17;100.00;98864.59;4905221;29;20446;-73
2023/12/22 05:48:28;;;;;;;7.88;1.30;;;;;;;2.22;100.00;98941.19;4897206;29;20055;-82
2023/12/22 05:50:57;;;;;;;10.18;1.60;;;;;;;2.24;100.00;98949.66;4894108;29;20104;-81
2023/12/22 05:53:23;;;;;;;7.35;1.05;;;;;;;2.14;100.00;98968.09;4918705;29;20047;-79
2023/12/22 05:55:48;;;;;;;10.15;1.25;;;;;;;2.10;100.00;98959.91;4916268;29;20044;-80
2023/12/22 05:58:14;;;;;;;10.68;1.38;;;;;;;2.04;100.00;98981.28;4901802;29;20084;-88
2023/12/22 06:00:40;;;;;;;8.55;1.35;;;;;;;1.88;100.00;98965.31;4913683;29;20035;-84
2023/12/22 06:03:05;;;;;;;6.70;1.25;;;;;;;1.79;100.00;98980.06;4892137;29;20036;-79
2023/12/22 06:05:31;;;;;;;6.80;1.00;;;;;;;1.78;100.00;98982.97;4904961;29;20048;-81
2023/12/22 06:07:57;;;;;;;5.07;1.77;;;;;;;1.73;100.00;98986.34;4909880;29;20040;-79
2023/12/22 06:10:23;;;;;;;9.35;1.20;;;;;;;1.64;100.00;98987.88;4887439;29;20044;-78
2023/12/22 06:12:48;;;;;;;5.95;1.58;;;;;;;1.62;100.00;98985.47;4905337;29;20502;-79
2023/12/22 06:15:14;;;;;;;7.57;1.65;;;;;;;1.61;100.00;98988.38;4890527;29;20152;-80
2023/12/22 06:17:40;;;;;;;12.02;1.90;;;;;;;1.62;100.00;98995.25;4904718;29;20040;-78
2023/12/22 06:20:06;;;;;;;11.82;2.85;;;;;;;1.62;100.00;98987.31;4888222;29;20040;-81
2023/12/22 06:22:32;;;;;;;10.35;2.80;;;;;;;1.65;100.00;98989.47;4876275;29;20044;-83
2023/12/22 06:24:58;;;;;;;13.10;2.35;;;;;;;1.65;100.00;98989.47;4874184;29;20047;-79
2023/12/22 06:27:25;;;;;;;7.88;1.60;;;;;;;1.63;100.00;99002.13;4907637;29;20039;-82
2023/12/22 06:29:52;;;;;;;9.32;2.13;;;;;;;1.69;100.00;98987.91;4907760;23;20036;31
2023/12/22 06:32:17;;;;;;;11.38;2.10;;;;;;;1.71;100.00;98982.38;4903529;29;20070;-71
2023/12/22 06:34:43;;;;;;;8.50;1.90;;;;;;;1.72;100.00;99003.25;4919060;29;20122;-74
2023/12/22 06:37:10;;;;;;;9.90;1.55;;;;;;;1.76;100.00;99001.69;4907213;29;20132;-72
2023/12/22 06:39:36;;;;;;;9.93;1.90;;;;;;;1.77;100.00;98998.00;4898984;29;20047;-72
2023/12/22 06:42:03;;;;;;;12.90;2.00;;;;;;;1.84;100.00;99001.22;4916576;29;20204;-73
2023/12/22 06:44:31;;;;;;;12.88;1.88;;;;;;;1.85;100.00;99020.50;4887490;29;20043;-74
2023/12/22 06:46:57;;;;;;;13.55;2.60;;;;;;;1.86;100.00;99017.59;4917342;29;20033;-74
2023/12/22 06:49:23;;;;;;;11.95;2.00;;;;;;;1.93;100.00;99012.09;4901777;29;20047;-73
2023/12/22 06:51:48;;;;;;;13.20;2.38;;;;;;;1.92;100.00;99013.13;4900512;29;20033;-74
2023/12/22 06:54:14;;;;;;;12.82;2.08;;;;;;;1.97;100.00;99018.47;4903468;29;20120;-74
2023/12/22 06:56:40;;;;;;;12.57;2.28;;;;;;;2.07;100.00;99007.16;4886040;29;20032;-74
2023/12/22 06:59:06;;;;;;;16.25;2.45;;;;;;;2.11;100.00;99013.53;4902654;29;20042;-73
2023/12/22 07:01:34;;;;;;;15.48;2.53;;;;;;;2.16;100.00;99021.44;4904637;29;20228;-73
2023/12/22 07:04:02;;;;;;;13.45;1.80;;;;;;;2.11;100.00;99029.38;4899199;29;20510;-74
2023/12/22 07:06:32;;;;;;;18.67;2.45;;;;;;;2.05;100.00;99054.16;4914726;29;20062;-73
2023/12/22 07:09:19;;;;;;;15.70;2.35;;;;;;;1.96;100.00;99026.63;4901392;29;20036;-74
2023/12/22 07:11:51;;;;;;;13.70;3.63;;;;;;;1.95;100.00;99028.47;4892705;29;20046;-74
2023/12/22 07:14:17;;;;;;;16.98;2.25;;;;;;;2.01;100.00;99042.50;4899351;29;20051;-74
2023/12/22 07:16:43;;;;;;;27.63;3.42;;;;;;;2.00;100.00;99039.06;4902251;29;20493;-75
2023/12/22 07:19:09;;;;;;;21.27;2.63;;;;;;;2.04;100.00;99040.16;4912234;29;20093;-74
2023/12/22 07:21:34;;;;;;;22.00;2.97;;;;;;;2.02;100.00;99046.72;4901255;29;20450;-74
2023/12/22 07:24:01;;;;;;;13.73;2.65;;;;;;;2.05;100.00;99056.78;4886910;29;20111;-74
2023/12/22 07:26:27;;;;;;;10.23;2.05;;;;;;;1.99;100.00;99055.16;4903439;29;20060;-73
2023/12/22 07:28:53;;;;;;;19.15;2.97;;;;;;;2.07;100.00;99050.19;4905461;29;20078;-73
2023/12/22 07:31:19;;;;;;;;;;;;;;;2.06;100.00;99075.00;4906275;29;20056;-74
2023/12/22 07:33:45;;;;;;;14.65;2.85;;;;;;;2.13;100.00;99082.72;4901521;29;19923;-73
2023/12/22 07:36:11;;;;;;;18.77;3.75;;;;;;;2.16;100.00;99080.34;4890079;29;20584;-73
2023/12/22 07:38:39;;;;;;;18.48;3.42;;;;;;;2.24;100.00;99086.22;4905272;29;20076;-73
2023/12/22 07:41:04;;;;;;;8.05;2.20;;;;;;;2.29;100.00;99089.66;4907160;29;20036;-73
2023/12/22 07:43:31;;;;;;;13.13;2.42;;;;;;;2.30;100.00;99099.19;4888240;29;20038;-73
2023/12/22 07:45:57;;;;;;;24.30;3.08;;;;;;;2.33;100.00;99117.19;4900299;29;20123;-73
2023/12/22 07:48:23;;;;;;;10.60;2.05;;;;;;;2.28;100.00;99119.00;4898729;29;21052;-74
2023/12/22 07:50:50;;;;;;;10.70;1.95;;;;;;;2.13;100.00;99125.75;4901831;29;20040;-73
2023/12/22 07:53:15;;;;;;;14.35;2.00;;;;;;;2.06;100.00;99148.16;4902796;29;20482;-73
2023/12/22 07:55:43;;;;;;;8.38;1.80;;;;;;;1.95;100.00;99154.38;4899632;29;20040;-73
2023/12/22 07:58:08;;;;;;;10.15;1.98;;;;;;;1.84;100.00;99151.69;4901073;29;20084;-74
2023/12/22 08:00:34;;;;;;;9.80;1.48;;;;;;;1.78;100.00;99152.69;4905298;29;20473;-73
2023/12/22 08:03:00;;;;;;;13.15;2.00;;;;;;;1.84;100.00;99164.88;4902758;29;20056;-74
2023/12/22 08:05:26;;;;;;;12.10;1.38;;;;;;;1.90;100.00;99176.28;4906176;29;20126;-73
2023/12/22 08:07:52;;;;;;;12.88;2.47;;;;;;;1.92;100.00;99166.25;4900331;29;20857;-73
2023/12/22 08:10:18;;;;;;;9.35;1.45;;;;;;;2.00;100.00;99180.84;4902845;29;20039;-73
2023/12/22 08:12:44;;;;;;;15.88;1.90;;;;;;;2.03;100.00;99153.91;4902285;29;20116;-74
2023/12/22 08:15:12;;;;;;;15.32;2.13;;;;;;;2.11;100.00;99171.97;4901091;29;20402;-73
2023/12/22 08:17:51;;;;;;;9.23;1.90;;;;;;;2.14;100.00;99195.22;4902301;29;20090;-73
2023/12/22 08:20:21;;;;;;;13.95;2.42;;;;;;;2.03;100.00;99236.59;4901349;29;20517;-74
2023/12/22 08:22:48;;;;;;;8.48;1.58;;;;;;;1.82;100.00;99203.91;4893228;29;20394;-72
2023/12/22 08:25:14;;;;;;;6.13;1.50;;;;;;;1.69;100.00;99217.50;4885684;29;20077;-73
2023/12/22 08:27:40;;;;;;;;;;;;;;;1.58;100.00;99232.44;4903726;29;20554;-73
2023/12/22 08:30:06;;;;;;;5.63;1.27;;;;;;;1.46;100.00;99215.16;4908586;29;19919;-73
2023/12/22 08:32:32;;;;;;;5.93;1.38;;;;;;;1.38;100.00;99208.47;4903592;29;20111;-73
2023/12/22 08:34:57;;;;;;;7.93;1.35;;;;;;;1.32;100.00;99201.53;4906596;29;20040;-73
2023/12/22 08:37:23;;;;;;;6.93;1.30;;;;;;;1.30;100.00;99214.19;4903127;29;20060;-73
2023/12/22 08:39:50;;;;;;;9.55;1.80;;;;;;;1.30;100.00;99217.63;4909683;29;20106;-73
2023/12/22 08:42:17;;;;;;;16.27;2.03;;;;;;;1.30;100.00;99225.53;4889997;29;20151;-74
2023/12/22 08:44:43;;;;;;;12.82;2.83;;;;;;;1.31;100.00;99213.94;4903833;29;20036;-73
2023/12/22 08:47:09;;;;;;;24.27;3.28;;;;;;;1.36;100.00;99213.19;4889185;29;20099;-73
2023/12/22 08:49:34;;;;;;;11.40;2.97;;;;;;;1.40;100.00;99219.56;4909240;29;20120;-72
2023/12/22 08:52:01;;;;;;;16.55;3.08;;;;;;;1.45;100.00;99213.56;4906902;29;20063;-72
2023/12/22 08:54:27;;;;;;;16.52;3.50;;;;;;;1.49;100.00;99188.25;4906888;29;20414;-72
2023/12/22 08:56:52;;;;;;;12.43;2.85;;;;;;;1.69;100.00;99214.84;4905723;29;20040;-72
2023/12/22 08:59:18;;;;;;;16.63;2.38;;;;;;;1.82;100.00;99232.16;4894029;29;20039;-72
2023/12/22 09:01:44;;;;;;;12.68;2.72;;;;;;;1.99;100.00;99218.88;4907686;29;20082;-73
2023/12/22 09:04:11;;;;;;;12.55;2.30;;;;;;;2.05;100.00;99221.28;4906157;29;20036;-72
2023/12/22 09:06:37;;;;;;;10.38;1.88;;;;;;;2.08;100.00;99220.00;4907550;29;20036;-73
2023/12/22 09:09:04;;;;;;;7.25;1.73;;;;;;;2.07;100.00;99215.75;4905836;29;20029;-73
2023/12/22 09:11:29;;;;;;;12.85;1.85;;;;;;;2.06;100.00;99225.53;4906734;29;20047;-75
2023/12/22 09:13:55;;;;;;;8.18;1.40;;;;;;;2.10;100.00;99224.00;4899878;29;20116;-72
2023/12/22 09:16:22;;;;;;;7.45;1.38;;;;;;;2.17;100.00;99214.00;4908293;29;20451;-73
2023/12/22 09:18:49;;;;;;;8.52;1.35;;;;;;;2.25;100.00;99215.41;4902032;29;20044;-73
2023/12/22 09:21:17;;;;;;;10.48;1.45;;;;;;;2.26;100.00;99230.19;4894579;29;20044;-74
2023/12/22 09:23:46;;;;;;;9.98;1.60;;;;;;;2.26;100.00;99226.75;4905386;29;20036;-73
2023/12/22 09:26:15;;;;;;;7.78;1.05;;;;;;;2.28;100.00;99228.09;4875779;29;20494;-73
2023/12/22 09:28:42;;;;;;;11.80;1.73;;;;;;;2.41;100.00;99225.03;4908234;29;20040;-73
2023/12/22 09:31:09;;;;;;;12.10;2.20;;;;;;;2.42;100.00;99225.81;4891414;29;20032;-72
2023/12/22 09:33:35;;;;;;;8.02;1.42;;;;;;;2.50;100.00;99241.19;4922032;29;20028;-72
2023/12/22 09:36:01;;;;;;;9.27;1.58;;;;;;;2.56;100.00;99234.09;4913176;29;20143;-73
2023/12/22 09:38:27;;;;;;;13.52;2.28;;;;;;;2.59;100.00;99228.34;4906837;29;20123;-73
2023/12/22 09:40:54;;;;;;;12.40;2.05;;;;;;;2.65;100.00;99235.25;4902321;29;20158;-73
2023/12/22 09:43:19;;;;;;;7.40;1.85;;;;;;;2.71;100.00;99235.03;4902255;29;20047;-73
2023/12/22 09:45:46;;;;;;;6.75;1.65;;;;;;;2.74;100.00;99231.88;4916944;29;20043;-73
2023/12/22 09:48:17;;;;;;;9.48;2.15;;;;;;;2.79;100.00;99227.66;4907952;29;20036;-73
2023/12/22 09:50:46;;;;;;;13.80;1.70;;;;;;;2.78;100.00;99248.03;4907507;29;20150;-72
2023/12/22 09:53:13;;;;;;;7.95;2.30;;;;;;;2.76;100.00;99238.75;4891275;29;20091;-72
2023/12/22 09:55:44;;;;;;;11.52;2.95;;;;;;;2.75;100.00;99235.31;4902347;29;20043;-72
2023/12/22 09:58:10;;;;;;;9.32;1.65;;;;;;;2.85;100.00;99238.03;4906987;29;20058;-72
2023/12/22 10:00:38;;;;;;;11.30;1.73;;;;;;;2.91;100.00;99244.94;4905785;29;20305;-71
2023/12/22 10:03:06;;;;;;;10.73;1.52;;;;;;;2.99;100.00;99233.88;4887935;29;20040;-73
2023/12/22 10:05:33;;;;;;;7.60;1.77;;;;;;;3.10;100.00;99226.78;4900709;29;20044;-72
2023/12/22 10:08:00;;;;;;;11.77;2.03;;;;;;;3.20;100.00;99249.84;4888274;29;20044;-72
2023/12/22 10:10:30;;;;;;;13.93;1.90;;;;;;;3.23;100.00;99234.25;4903695;29;20178;-73
2023/12/22 10:12:57;;;;;;;11.20;2.05;;;;;;;3.31;100.00;99211.78;4898668;29;20037;-73
2023/12/22 10:15:24;;;;;;;10.55;2.03;;;;;;;3.35;100.00;99222.66;4905227;29;20039;-73
2023/12/22 10:17:51;;;;;;;15.05;3.03;;;;;;;3.37;100.00;99241.72;4904136;29;20036;-76
2023/12/22 10:20:16;;;;;;;11.57;2.42;;;;;;;3.40;100.00;99244.66;4898827;29;20124;-73
2023/12/22 10:22:42;;;;;;;13.70;1.95;;;;;;;3.38;100.00;99238.78;4906064;29;20127;-73
2023/12/22 10:25:08;;;;;;;12.30;1.85;;;;;;;3.43;100.00;99248.63;4889229;29;20072;-74
2023/12/22 10:27:36;;;;;;;12.85;2.60;;;;;;;3.47;100.00;99250.50;4907947;29;20693;-72
2023/12/22 10:30:03;;;;;;;15.57;2.40;;;;;;;3.51;100.00;99259.50;4908368;29;20035;-73
2023/12/22 10:32:30;;;;;;;16.35;2.60;;;;;;;3.52;100.00;99250.53;4906426;29;20100;-72
2023/12/22 10:34:59;;;;;;;14.60;2.75;;;;;;;3.49;100.00;99243.09;4904228;29;20111;-73
2023/12/22 10:37:25;;;;;;;12.50;1.70;;;;;;;3.51;100.00;99233.03;4907696;29;20040;-76
2023/12/22 10:39:54;;;;;;;16.60;2.15;;;;;;;3.56;100.00;99246.28;4906614;29;20056;-74
2023/12/22 10:42:20;;;;;;;15.10;2.38;;;;;;;3.56;100.00;99256.88;4886209;29;20548;-73
2023/12/22 10:44:47;;;;;;;11.35;2.15;;;;;;;3.46;100.00;99219.78;4905675;29;20497;-75
2023/12/22 10:47:13;;;;;;;9.32;1.50;;;;;;;3.30;100.00;99279.00;4900775;29;20443;-73
2023/12/22 10:49:39;;;;;;;9.25;1.48;;;;;;;2.99;100.00;99267.47;4891568;29;20060;-72
2023/12/22 10:52:05;;;;;;;9.18;1.23;;;;;;;2.83;100.00;99263.09;4893133;29;20037;-73
2023/12/22 10:54:31;;;;;;;10.35;1.10;;;;;;;2.66;100.00;99272.00;4904116;29;20123;-73
2023/12/22 10:57:03;;;;;;;16.88;1.98;;;;;;;2.56;100.00;99273.75;4906854;29;20134;-73
2023/12/22 10:59:32;;;;;;;13.10;1.50;;;;;;;2.53;100.00;99284.84;4905027;29;20043;-71
2023/12/22 11:01:59;;;;;;;8.52;1.83;;;;;;;2.49;100.00;99270.53;4888919;29;20096;-72
2023/12/22 11:04:36;;;;;;;11.48;1.70;;;;;;;2.46;100.00;99322.84;4899648;29;20060;-73
2023/12/22 11:07:03;;;;;;;10.38;2.45;;;;;;;2.41;100.00;99293.72;4901162;29;20028;-73
2023/12/22 11:09:32;;;;;;;8.93;2.13;;;;;;;2.41;100.00;99320.16;4901045;29;20048;-72
2023/12/22 11:12:00;;;;;;;10.90;2.25;;;;;;;2.37;100.00;99321.72;4902556;29;20402;-72
2023/12/22 11:14:26;;;;;;;7.38;1.67;;;;;;;2.35;100.00;99318.50;4901588;29;20036;-72
2023/12/22 11:16:54;;;;;;;12.88;1.63;;;;;;;2.35;100.00;99334.34;4904309;29;20039;-73
2023/12/22 11:19:22;;;;;;;14.20;2.08;;;;;;;2.35;100.00;99326.44;4886779;29;20422;-72
2023/12/22 11:21:50;;;;;;;12.90;1.70;;;;;;;2.37;100.00;99311.13;4902227;29;20036;-72
2023/12/22 11:24:16;;;;;;;10.00;1.60;;;;;;;2.40;100.00;99318.56;4919599;29;20115;-73
2023/12/22 11:26:44;;;;;;;10.82;1.77;;;;;;;2.38;100.00;99307.44;4888678;29;20063;-72
2023/12/22 11:29:12;;;;;;;12.40;1.77;;;;;;;2.46;100.00;99322.84;4903672;29;20498;-72